METEOROLOGIA BHB

10 - 02:00 - METAR SAZB 100200Z 32003KT CAVOK 17/10 Q1011 =

IMAGEN SATELITAL

WINDY